createdAt,value
2023-01-07T00:00:26.144Z,2.20
2023-01-07T00:03:12.609Z,1.00
2023-01-07T00:05:41.846Z,0.90
2023-01-07T00:08:09.405Z,1.00
2023-01-07T00:10:43.615Z,0.90
2023-01-07T00:13:25.708Z,1.10
2023-01-07T00:16:04.686Z,1.20
2023-01-07T00:18:38.959Z,1.13
2023-01-07T00:21:21.617Z,1.10
2023-01-07T00:23:49.613Z,1.00
2023-01-07T00:29:06.824Z,1.70
2023-01-07T00:31:43.625Z,1.67
2023-01-07T00:34:23.560Z,1.70
2023-01-07T00:37:19.606Z,1.50
2023-01-07T00:39:49.003Z,1.10
2023-01-07T00:42:41.002Z,1.40
2023-01-07T00:45:10.651Z,1.30
2023-01-07T00:47:39.648Z,1.00
2023-01-07T00:50:14.003Z,1.00
2023-01-07T00:52:51.851Z,0.90
2023-01-07T00:55:30.999Z,1.40
2023-01-07T00:57:58.689Z,1.30
2023-01-07T01:00:32.691Z,1.40
2023-01-07T01:03:10.414Z,1.10
2023-01-07T01:05:38.924Z,1.00
2023-01-07T01:08:08.198Z,1.10
2023-01-07T01:10:46.069Z,1.40
2023-01-07T01:13:33.980Z,1.10
2023-01-07T01:16:25.190Z,1.13
2023-01-07T01:18:53.275Z,0.80
2023-01-07T01:21:20.746Z,0.80
2023-01-07T01:24:01.412Z,1.00
2023-01-07T01:26:31.142Z,1.10
2023-01-07T01:29:11.190Z,0.80
2023-01-07T01:31:38.767Z,0.90
2023-01-07T01:34:07.021Z,0.87
2023-01-07T01:36:41.257Z,1.00
2023-01-07T01:39:17.360Z,1.00
2023-01-07T01:41:51.178Z,0.90
2023-01-07T01:44:52.975Z,1.00
2023-01-07T01:48:17.397Z,1.20
2023-01-07T01:50:50.707Z,1.30
2023-01-07T01:53:35.378Z,1.40
2023-01-07T01:56:16.737Z,1.27
2023-01-07T01:59:13.467Z,1.00
2023-01-07T02:01:48.605Z,1.10
2023-01-07T02:04:28.345Z,1.20
2023-01-07T02:07:07.400Z,1.20
2023-01-07T02:09:41.372Z,1.07
2023-01-07T02:12:50.256Z,1.50
2023-01-07T02:15:46.233Z,1.47
2023-01-07T02:18:19.986Z,1.37
2023-01-07T02:21:33.246Z,1.40
2023-01-07T02:24:28.970Z,1.30
2023-01-07T02:27:28.282Z,1.40
2023-01-07T02:30:19.182Z,1.30
2023-01-07T02:33:12.361Z,1.50
2023-01-07T02:36:17.487Z,1.20
2023-01-07T02:39:20.395Z,1.10
2023-01-07T02:42:07.050Z,1.47
2023-01-07T02:45:02.486Z,1.40
2023-01-07T02:47:46.871Z,1.27
2023-01-07T02:50:28.559Z,1.20
2023-01-07T02:53:11.387Z,1.10
2023-01-07T02:56:12.286Z,1.47
2023-01-07T02:58:42.559Z,0.97
2023-01-07T03:01:44.699Z,1.60
2023-01-07T03:04:38.415Z,1.30
2023-01-07T03:07:19.611Z,1.40
2023-01-07T03:09:56.537Z,1.70
2023-01-07T03:13:00.585Z,1.40
2023-01-07T03:16:01.359Z,1.53
2023-01-07T03:18:41.975Z,1.60
2023-01-07T03:21:13.753Z,1.70
2023-01-07T03:23:51.994Z,1.50
2023-01-07T03:26:30.137Z,1.27
2023-01-07T03:29:09.010Z,1.50
2023-01-07T03:31:42.219Z,1.47
2023-01-07T03:34:21.903Z,1.40
2023-01-07T03:36:53.821Z,1.30
2023-01-07T03:39:31.938Z,1.23
2023-01-07T03:42:18.965Z,1.40
2023-01-07T03:44:52.947Z,1.40
2023-01-07T03:47:21.379Z,1.20
2023-01-07T03:49:48.990Z,1.17
2023-01-07T03:52:30.986Z,1.10
2023-01-07T03:55:00.521Z,1.30
2023-01-07T03:57:29.301Z,1.20
2023-01-07T04:00:03.452Z,1.20
2023-01-07T04:02:31.284Z,1.30
2023-01-07T04:04:58.705Z,1.20
2023-01-07T04:07:32.476Z,1.33
2023-01-07T04:09:59.962Z,1.30
2023-01-07T04:12:28.652Z,1.40
2023-01-07T04:15:10.561Z,1.17
2023-01-07T04:17:38.046Z,1.03
2023-01-07T04:20:08.074Z,1.30
2023-01-07T04:22:43.491Z,1.10
2023-01-07T04:25:13.165Z,0.90
2023-01-07T04:27:42.727Z,0.90
2023-01-07T04:30:18.161Z,0.87
2023-01-07T04:32:45.641Z,0.87
2023-01-07T04:35:13.226Z,1.00
2023-01-07T04:40:32.424Z,1.00
2023-01-07T04:43:08.188Z,1.23
2023-01-07T04:45:35.727Z,0.67
2023-01-07T04:48:03.343Z,1.10
2023-01-07T04:50:37.222Z,0.90
2023-01-07T04:53:06.548Z,0.83
2023-01-07T04:55:34.036Z,1.17
2023-01-07T04:58:08.602Z,1.07
2023-01-07T05:00:37.776Z,1.30
2023-01-07T05:03:05.285Z,1.43
2023-01-07T05:05:40.743Z,1.57
2023-01-07T05:08:08.257Z,1.10
2023-01-07T05:10:35.898Z,1.33
2023-01-07T05:13:12.832Z,1.20
2023-01-07T05:15:48.739Z,1.20
2023-01-07T05:18:23.747Z,1.17
2023-01-07T05:20:51.270Z,1.40
2023-01-07T05:23:21.996Z,1.60
2023-01-07T05:25:56.987Z,1.30
2023-01-07T05:28:24.707Z,1.30
2023-01-07T05:31:06.136Z,1.40
2023-01-07T05:33:33.793Z,1.70
2023-01-07T05:36:01.834Z,1.87
2023-01-07T05:38:35.856Z,1.67
2023-01-07T05:41:03.696Z,1.87
2023-01-07T05:43:31.999Z,1.70
2023-01-07T05:46:14.850Z,1.60
2023-01-07T05:48:42.490Z,1.60
2023-01-07T05:51:09.980Z,1.70
2023-01-07T05:53:47.854Z,1.60
2023-01-07T05:56:15.377Z,1.77
2023-01-07T05:58:43.012Z,2.00
2023-01-07T06:01:18.019Z,1.60
2023-01-07T06:03:45.645Z,1.90
2023-01-07T06:06:15.323Z,1.70
2023-01-07T06:08:50.272Z,1.73
2023-01-07T06:11:17.983Z,1.90
2023-01-07T06:16:33.849Z,2.17
2023-01-07T06:19:11.624Z,1.80
2023-01-07T06:21:39.093Z,1.80
2023-01-07T06:24:07.443Z,1.97
2023-01-07T06:26:45.055Z,1.70
2023-01-07T06:29:12.554Z,1.80
2023-01-07T06:31:40.113Z,2.23
2023-01-07T06:34:14.083Z,2.20
2023-01-07T06:36:41.692Z,2.00
2023-01-07T06:39:13.156Z,1.97
2023-01-07T06:42:08.524Z,1.87
2023-01-07T06:44:36.131Z,2.03
2023-01-07T06:47:03.697Z,1.83
2023-01-07T06:49:44.426Z,1.60
2023-01-07T06:52:12.028Z,1.73
2023-01-07T06:54:39.734Z,1.53
2023-01-07T06:57:15.509Z,1.40
2023-01-07T06:59:42.957Z,1.50
2023-01-07T07:06:31.815Z,1.27
2023-01-07T07:09:34.600Z,0.83
2023-01-07T07:12:02.299Z,1.10
2023-01-07T07:17:13.293Z,1.10
2023-01-07T07:19:40.825Z,0.90
2023-01-07T07:23:14.408Z,1.27
2023-01-07T07:25:49.438Z,1.17
2023-01-07T07:28:24.336Z,1.20
2023-01-07T07:30:52.074Z,1.13
2023-01-07T07:33:19.914Z,1.30
2023-01-07T07:35:54.432Z,1.10
2023-01-07T07:38:22.170Z,1.13
2023-01-07T07:40:49.726Z,1.10
2023-01-07T07:43:25.291Z,1.07
2023-01-07T07:45:53.011Z,1.10
2023-01-07T07:48:20.641Z,1.00
2023-01-07T07:50:58.408Z,1.00
2023-01-07T07:53:26.674Z,1.13
2023-01-07T07:55:54.368Z,1.40
2023-01-07T07:58:33.266Z,1.30
2023-01-07T08:01:01.040Z,1.33
2023-01-07T08:03:29.014Z,1.40
2023-01-07T08:06:06.203Z,1.50
2023-01-07T08:08:34.243Z,1.20
2023-01-07T08:11:04.027Z,1.30
2023-01-07T08:13:38.397Z,1.30
2023-01-07T08:16:06.477Z,1.23
2023-01-07T08:18:34.387Z,1.20
2023-01-07T08:21:08.329Z,1.30
2023-01-07T08:23:57.664Z,1.50
2023-01-07T08:26:31.629Z,1.53
2023-01-07T08:29:01.176Z,1.40
2023-01-07T08:31:29.406Z,1.30
2023-01-07T08:34:09.671Z,1.20
2023-01-07T08:36:37.337Z,1.50
2023-01-07T08:39:13.158Z,1.50
2023-01-07T08:41:40.880Z,1.37
2023-01-07T08:44:08.677Z,1.27
2023-01-07T08:46:43.141Z,1.20
2023-01-07T08:49:11.520Z,1.20
2023-01-07T08:51:39.193Z,1.33
2023-01-07T08:54:14.114Z,1.20
2023-01-07T08:56:41.837Z,1.43
2023-01-07T08:59:10.133Z,1.40
2023-01-07T09:01:44.249Z,1.50
2023-01-07T09:04:12.247Z,1.20
2023-01-07T09:06:42.007Z,1.43
2023-01-07T09:09:19.240Z,1.00
2023-01-07T09:11:46.731Z,1.20
2023-01-07T09:14:15.612Z,1.20
2023-01-07T09:16:50.258Z,1.00
2023-01-07T09:19:18.008Z,0.93
2023-01-07T09:21:45.792Z,1.00
2023-01-07T09:24:20.168Z,0.93
2023-01-07T09:26:54.232Z,0.90
2023-01-07T09:29:28.137Z,0.93
2023-01-07T09:31:55.887Z,0.80
2023-01-07T09:34:23.783Z,0.97
2023-01-07T09:36:58.208Z,0.93
2023-01-07T09:39:27.054Z,1.00
2023-01-07T09:42:08.660Z,0.80
2023-01-07T09:44:42.210Z,0.93
2023-01-07T09:47:18.609Z,0.90
2023-01-07T09:49:51.101Z,0.90
2023-01-07T09:52:34.719Z,0.80
2023-01-07T09:55:11.939Z,0.90
2023-01-07T09:57:46.628Z,0.80
2023-01-07T10:00:21.061Z,0.90
2023-01-07T10:03:21.680Z,0.90
2023-01-07T10:06:06.577Z,1.20
2023-01-07T10:08:44.965Z,1.20
2023-01-07T10:11:31.127Z,1.27
2023-01-07T10:14:29.663Z,1.20
2023-01-07T10:17:34.816Z,1.20
2023-01-07T10:20:11.799Z,1.17
2023-01-07T10:22:54.139Z,1.17
2023-01-07T10:25:41.680Z,1.25
2023-01-07T10:28:25.924Z,1.50
2023-01-07T10:31:01.733Z,1.40
2023-01-07T10:33:33.032Z,1.30
2023-01-07T10:36:32.998Z,1.10
2023-01-07T10:39:31.559Z,1.52
2023-01-07T10:42:32.715Z,1.33
2023-01-07T10:45:32.593Z,1.60
2023-01-07T10:48:30.859Z,1.47
2023-01-07T10:51:13.791Z,1.60
2023-01-07T10:54:06.736Z,2.03
2023-01-07T10:56:45.358Z,1.75
2023-01-07T10:59:25.868Z,1.58
2023-01-07T11:01:56.987Z,1.63
2023-01-07T11:04:32.901Z,1.15
2023-01-07T11:07:43.900Z,2.20
2023-01-07T11:10:39.578Z,1.40
2023-01-07T11:13:26.299Z,1.48
2023-01-07T11:16:30.488Z,1.48
2023-01-07T11:19:12.407Z,1.70
2023-01-07T11:21:50.618Z,1.70
2023-01-07T11:24:42.481Z,1.60
2023-01-07T11:27:26.459Z,1.35
2023-01-07T11:30:25.654Z,1.83
2023-01-07T11:33:13.715Z,1.80
2023-01-07T11:35:56.005Z,1.50
2023-01-07T11:38:36.313Z,1.77
2023-01-07T11:41:07.508Z,1.60
2023-01-07T11:43:59.165Z,1.83
2023-01-07T11:46:31.781Z,1.67
2023-01-07T11:49:09.783Z,2.63
2023-01-07T11:51:41.582Z,2.47
2023-01-07T11:54:32.851Z,2.53
2023-01-07T11:57:26.449Z,2.40
2023-01-07T12:00:24.260Z,2.08
2023-01-07T12:03:11.410Z,2.03
2023-01-07T12:05:47.306Z,1.83
2023-01-07T12:08:23.327Z,1.77
2023-01-07T12:11:10.152Z,1.70
2023-01-07T12:13:42.028Z,1.73
2023-01-07T12:16:17.249Z,2.35
2023-01-07T12:19:18.945Z,2.10
2023-01-07T12:21:53.237Z,2.10
2023-01-07T12:24:38.441Z,2.40
2023-01-07T12:27:30.283Z,2.70
2023-01-07T12:30:25.285Z,3.10
2023-01-07T12:33:05.299Z,2.70
2023-01-07T12:35:45.664Z,2.50
2023-01-07T12:38:53.395Z,2.80
2023-01-07T12:41:29.898Z,2.75
2023-01-07T12:44:14.443Z,2.88
2023-01-07T12:47:31.973Z,2.65
2023-01-07T12:50:10.273Z,2.95
2023-01-07T12:52:57.829Z,2.80
2023-01-07T12:55:38.560Z,3.33
2023-01-07T12:58:45.360Z,3.08
2023-01-07T13:01:19.523Z,3.25
2023-01-07T13:04:07.357Z,2.97
2023-01-07T13:07:04.508Z,3.00
2023-01-07T13:09:43.305Z,3.47
2023-01-07T13:12:55.441Z,2.63
2023-01-07T13:15:29.003Z,3.10
2023-01-07T13:18:06.809Z,3.30
2023-01-07T13:21:06.906Z,3.72
2023-01-07T13:24:09.336Z,3.40
2023-01-07T13:27:05.563Z,3.20
2023-01-07T13:29:56.371Z,3.60
2023-01-07T13:32:27.389Z,3.05
2023-01-07T13:35:45.345Z,3.55
2023-01-07T13:38:22.210Z,2.95
2023-01-07T13:40:59.428Z,3.13
2023-01-07T13:43:38.629Z,3.03
2023-01-07T13:46:22.329Z,3.20
2023-01-07T13:48:54.582Z,3.15
2023-01-07T13:51:39.399Z,3.00
2023-01-07T13:54:11.805Z,3.13
2023-01-07T13:56:47.361Z,3.05
2023-01-07T13:59:47.771Z,2.90
2023-01-07T14:02:33.627Z,2.55
2023-01-07T14:05:26.186Z,3.03
2023-01-07T14:08:11.495Z,2.88
2023-01-07T14:10:39.309Z,3.35
2023-01-07T14:13:28.336Z,2.58
2023-01-07T14:16:36.556Z,3.10
2023-01-07T14:19:40.401Z,2.97
2023-01-07T14:22:30.461Z,3.30
2023-01-07T14:25:32.360Z,3.10
2023-01-07T14:28:19.896Z,2.90
2023-01-07T14:30:57.506Z,3.72
2023-01-07T14:33:53.406Z,3.08
2023-01-07T14:36:27.363Z,3.50
2023-01-07T14:39:01.110Z,3.63
2023-01-07T14:41:35.358Z,3.08
2023-01-07T14:44:05.816Z,3.33
2023-01-07T14:46:55.535Z,3.67
2023-01-07T14:49:54.916Z,3.47
2023-01-07T14:52:55.198Z,3.47
2023-01-07T14:55:37.393Z,3.63
2023-01-07T14:58:46.340Z,3.70
2023-01-07T15:01:55.300Z,3.75
2023-01-07T15:04:42.143Z,3.70
2023-01-07T15:07:21.997Z,4.30
2023-01-07T15:10:25.362Z,4.18
2023-01-07T15:13:15.479Z,3.93
2023-01-07T15:16:08.177Z,3.33
2023-01-07T15:18:54.332Z,3.70
2023-01-07T15:21:37.340Z,3.80
2023-01-07T15:24:29.344Z,3.63
2023-01-07T15:27:14.208Z,3.60
2023-01-07T15:29:49.362Z,4.27
2023-01-07T15:32:49.221Z,3.70
2023-01-07T15:35:24.022Z,3.70
2023-01-07T15:37:59.698Z,4.57
2023-01-07T15:40:28.296Z,4.60
2023-01-07T15:43:01.292Z,4.83
2023-01-07T15:45:36.173Z,4.60
2023-01-07T15:48:12.625Z,4.63
2023-01-07T15:50:53.165Z,5.03
2023-01-07T15:53:25.756Z,4.67
2023-01-07T15:56:11.829Z,5.20
2023-01-07T15:58:50.495Z,5.97
2023-01-07T16:01:31.215Z,5.63
2023-01-07T16:03:59.363Z,5.27
2023-01-07T16:06:46.143Z,5.57
2023-01-07T16:09:21.603Z,6.10
2023-01-07T16:11:56.086Z,6.10
2023-01-07T16:14:26.864Z,6.00
2023-01-07T16:17:25.396Z,5.70
2023-01-07T16:20:29.709Z,5.23
2023-01-07T16:23:30.863Z,8.60
2023-01-07T16:26:10.427Z,5.70
2023-01-07T16:28:55.209Z,5.30
2023-01-07T16:31:25.885Z,5.37
2023-01-07T16:34:04.940Z,5.50
2023-01-07T16:36:47.589Z,6.50
2023-01-07T16:39:31.760Z,5.93
2023-01-07T16:42:18.301Z,6.47
2023-01-07T16:44:52.876Z,6.10
2023-01-07T16:47:24.425Z,8.03
2023-01-07T16:50:22.062Z,6.87
2023-01-07T16:52:55.219Z,6.37
2023-01-07T16:55:55.845Z,5.67
2023-01-07T16:58:54.198Z,6.53
2023-01-07T17:01:38.000Z,5.30
2023-01-07T17:04:17.746Z,5.00
2023-01-07T17:06:51.785Z,4.90
2023-01-07T17:09:37.435Z,4.93
2023-01-07T17:12:11.789Z,4.30
2023-01-07T17:14:46.150Z,4.37
2023-01-07T17:17:38.846Z,4.33
2023-01-07T17:20:19.878Z,3.60
2023-01-07T17:22:55.865Z,4.20
2023-01-07T17:25:44.743Z,4.30
2023-01-07T17:28:28.112Z,3.90
2023-01-07T17:30:57.748Z,4.30
2023-01-07T17:33:35.819Z,4.23
2023-01-07T17:36:03.626Z,4.67
2023-01-07T17:38:31.122Z,8.00
2023-01-07T17:41:05.197Z,25.50
2023-01-07T17:43:38.826Z,28.77
2023-01-07T17:46:15.950Z,5.77
2023-01-07T17:48:43.390Z,5.50
2023-01-07T17:51:14.278Z,5.03
2023-01-07T17:53:53.865Z,6.77
2023-01-07T17:56:21.838Z,4.90
2023-01-07T17:58:50.184Z,5.07
2023-01-07T18:01:26.972Z,5.53
2023-01-07T18:03:55.503Z,5.27
2023-01-07T18:06:28.267Z,5.47
2023-01-07T18:09:05.944Z,4.90
2023-01-07T18:11:58.361Z,4.87
2023-01-07T18:14:33.142Z,5.40
2023-01-07T18:17:00.929Z,5.03
2023-01-07T18:19:28.504Z,4.83
2023-01-07T18:22:02.950Z,5.40
2023-01-07T18:24:30.468Z,4.67
2023-01-07T18:27:17.861Z,5.03
2023-01-07T18:29:48.628Z,4.90
2023-01-07T18:32:17.350Z,5.33
2023-01-07T18:34:54.556Z,5.20
2023-01-07T18:37:23.536Z,5.80
2023-01-07T18:39:51.629Z,6.23
2023-01-07T18:42:28.503Z,6.77
2023-01-07T18:44:56.353Z,6.03
2023-01-07T18:47:24.528Z,6.80
2023-01-07T18:49:59.332Z,6.50
2023-01-07T18:52:28.103Z,7.20
2023-01-07T18:54:58.807Z,6.93
2023-01-07T18:57:33.352Z,6.13
2023-01-07T19:00:06.959Z,6.10
2023-01-07T19:02:42.289Z,5.83
2023-01-07T19:05:10.041Z,5.27
2023-01-07T19:07:38.138Z,5.30
2023-01-07T19:10:13.290Z,5.13
2023-01-07T19:12:40.928Z,4.30
2023-01-07T19:15:10.745Z,4.43
2023-01-07T19:17:45.344Z,3.97
2023-01-07T19:20:15.460Z,4.13
2023-01-07T19:22:54.723Z,4.23
2023-01-07T19:25:23.377Z,12.23
2023-01-07T19:28:04.370Z,6.27
2023-01-07T19:30:34.307Z,5.00
2023-01-07T19:33:04.185Z,6.40
2023-01-07T19:35:41.437Z,3.83
2023-01-07T19:38:13.021Z,4.07
2023-01-07T19:40:54.370Z,3.80
2023-01-07T19:43:21.980Z,3.37
2023-01-07T19:46:03.510Z,4.10
2023-01-07T19:48:35.696Z,3.30
2023-01-07T19:51:12.509Z,2.80
2023-01-07T19:53:49.185Z,3.60
2023-01-07T19:56:29.230Z,3.27
2023-01-07T19:59:08.991Z,3.33
2023-01-07T20:01:47.159Z,3.07
2023-01-07T20:04:17.681Z,3.17
2023-01-07T20:06:54.557Z,3.37
2023-01-07T20:09:24.091Z,3.03
2023-01-07T20:11:52.319Z,3.10
2023-01-07T20:14:28.311Z,3.30
2023-01-07T20:17:03.386Z,2.80
2023-01-07T20:19:38.114Z,3.53
2023-01-07T20:22:12.155Z,8.67
2023-01-07T20:24:51.123Z,4.40
2023-01-07T20:27:36.113Z,4.07
2023-01-07T20:30:21.463Z,3.27
2023-01-07T20:32:54.902Z,3.50
2023-01-07T20:35:32.688Z,3.73
2023-01-07T20:38:01.368Z,3.40
2023-01-07T20:40:30.932Z,3.97
2023-01-07T20:43:05.877Z,3.83
2023-01-07T20:45:44.079Z,3.30
2023-01-07T20:48:28.210Z,3.47
2023-01-07T20:51:01.029Z,17.80
2023-01-07T20:53:38.632Z,4.83
2023-01-07T20:56:15.905Z,9.00
2023-01-07T20:58:52.607Z,7.97
2023-01-07T21:01:23.821Z,3.43
2023-01-07T21:04:03.844Z,11.60
2023-01-07T21:06:32.121Z,3.77
2023-01-07T21:09:00.460Z,4.27
2023-01-07T21:11:40.737Z,3.77
2023-01-07T21:14:11.749Z,3.67
2023-01-07T21:17:00.860Z,4.20
2023-01-07T21:19:31.671Z,4.17
2023-01-07T21:25:41.667Z,5.17
2023-01-07T21:28:19.490Z,5.33
2023-01-07T21:30:55.954Z,5.20
2023-01-07T21:33:30.937Z,5.23
2023-01-07T21:36:05.691Z,4.93
2023-01-07T21:38:35.181Z,4.93
2023-01-07T21:41:17.168Z,5.20
2023-01-07T21:43:45.887Z,5.60
2023-01-07T21:46:15.700Z,4.77
2023-01-07T21:48:50.914Z,4.73
2023-01-07T21:51:26.916Z,5.00
2023-01-07T21:54:02.881Z,4.70
2023-01-07T21:56:32.990Z,4.70
2023-01-07T21:59:00.575Z,4.73
2023-01-07T22:01:38.158Z,5.00
2023-01-07T22:04:06.079Z,4.70
2023-01-07T22:06:37.748Z,4.43
2023-01-07T22:09:16.485Z,4.80
2023-01-07T22:11:44.460Z,5.07
2023-01-07T22:14:23.271Z,16.50
2023-01-07T22:16:52.032Z,13.00
2023-01-07T22:19:19.859Z,8.87
2023-01-07T22:21:55.341Z,29.23
2023-01-07T22:24:22.892Z,4.63
2023-01-07T22:27:04.358Z,5.83
2023-01-07T22:29:32.465Z,6.87
2023-01-07T22:31:59.976Z,4.00
2023-01-07T22:34:34.206Z,3.97
2023-01-07T22:37:16.318Z,3.87
2023-01-07T22:39:56.539Z,4.23
2023-01-07T22:42:32.447Z,3.90
2023-01-07T22:45:20.513Z,4.10
2023-01-07T22:47:54.127Z,4.10
2023-01-07T22:50:28.401Z,3.97
2023-01-07T22:52:56.007Z,3.43
2023-01-07T22:55:24.291Z,3.23
2023-01-07T22:58:00.061Z,3.87
2023-01-07T23:01:03.153Z,3.20
2023-01-07T23:03:40.485Z,3.33
2023-01-07T23:06:09.430Z,4.13
2023-01-07T23:08:38.969Z,3.83
2023-01-07T23:11:16.804Z,3.60
2023-01-07T23:13:44.187Z,3.40
2023-01-07T23:16:11.631Z,3.20
2023-01-07T23:18:46.786Z,3.00
2023-01-07T23:21:14.169Z,2.80
2023-01-07T23:23:42.274Z,3.00
2023-01-07T23:26:21.805Z,3.20
2023-01-07T23:28:55.880Z,2.73
2023-01-07T23:31:33.482Z,2.87
2023-01-07T23:34:01.409Z,3.03
2023-01-07T23:36:28.874Z,3.00
2023-01-07T23:39:03.433Z,3.30
2023-01-07T23:41:31.836Z,3.17
2023-01-07T23:43:59.301Z,3.07
2023-01-07T23:46:33.399Z,2.87
2023-01-07T23:49:00.933Z,3.03
2023-01-07T23:51:28.400Z,2.67
2023-01-07T23:54:02.375Z,2.70
2023-01-07T23:56:29.867Z,2.87
2023-01-07T23:58:57.409Z,2.70
